Terminal Aerodrome Forecast
Issued by NWS San Angelo, TX

Home | Current Version | Previous Version | Text Only | Print | Product List | Glossary On
Versions: 1 2 3 4 5 6 7 8 9 10 11 12 13 14 15 16
000
FTUS44 KSJT 291700
TAFSJT
TAF
KSJT 291738Z 2918/3018 17010KT P6SM FEW070 SCT100
      TEMPO 2921/2924 VRB25G45KT TSRA BKN050CB
     FM300000 13006KT P6SM FEW250 PROB30 3003/3006 P6SM TS BKN050CB
     FM300600 16006KT P6SM FEW050=

USA.gov is the U.S. government's official web portal to all federal, state and local government web resources and services.